createdAt,value
2023-05-20T00:02:13.330Z,49.32
2023-05-20T00:04:42.043Z,50.32
2023-05-20T00:07:09.119Z,50.05
2023-05-20T00:09:35.816Z,50.07
2023-05-20T00:12:02.823Z,50.50
2023-05-20T00:14:29.659Z,50.29
2023-05-20T00:16:56.577Z,51.33
2023-05-20T00:19:23.628Z,51.35
2023-05-20T00:21:50.435Z,50.98
2023-05-20T00:24:17.504Z,51.14
2023-05-20T00:26:44.363Z,52.24
2023-05-20T00:29:11.109Z,51.79
2023-05-20T00:31:38.060Z,51.48
2023-05-20T00:34:05.793Z,51.92
2023-05-20T00:36:32.573Z,52.48
2023-05-20T00:38:59.398Z,52.79
2023-05-20T00:41:26.247Z,52.23
2023-05-20T00:43:54.741Z,52.28
2023-05-20T00:46:22.940Z,53.11
2023-05-20T00:48:51.071Z,53.18
2023-05-20T00:51:17.988Z,52.78
2023-05-20T00:53:45.047Z,52.79
2023-05-20T00:56:12.296Z,53.26
2023-05-20T00:58:40.061Z,53.55
2023-05-20T01:01:07.249Z,53.83
2023-05-20T01:03:34.287Z,53.64
2023-05-20T01:06:01.397Z,53.29
2023-05-20T01:08:28.709Z,53.74
2023-05-20T01:11:04.703Z,54.26
2023-05-20T01:13:47.173Z,54.31
2023-05-20T01:16:17.035Z,54.03
2023-05-20T01:18:45.226Z,54.23
2023-05-20T01:21:13.739Z,54.54
2023-05-20T01:23:42.162Z,54.24
2023-05-20T01:26:13.540Z,54.65
2023-05-20T01:28:43.716Z,54.07
2023-05-20T01:31:31.521Z,54.26
2023-05-20T01:33:59.177Z,54.31
2023-05-20T01:36:27.595Z,54.75
2023-05-20T01:38:55.312Z,54.83
2023-05-20T01:41:25.282Z,55.11
2023-05-20T01:43:53.727Z,55.15
2023-05-20T01:46:20.878Z,55.15
2023-05-20T01:48:48.849Z,55.17
2023-05-20T01:51:16.104Z,55.23
2023-05-20T01:53:43.838Z,55.71
2023-05-20T01:56:10.822Z,55.86
2023-05-20T01:58:37.620Z,56.46
2023-05-20T02:01:04.441Z,56.15
2023-05-20T02:03:31.318Z,56.32
2023-05-20T02:05:59.656Z,56.58
2023-05-20T02:08:26.754Z,56.26
2023-05-20T02:10:53.523Z,56.55
2023-05-20T02:13:20.560Z,56.47
2023-05-20T02:15:48.575Z,56.89
2023-05-20T02:18:18.567Z,56.90
2023-05-20T02:20:45.642Z,56.86
2023-05-20T02:23:12.538Z,56.98
2023-05-20T02:25:40.507Z,57.25
2023-05-20T02:28:13.329Z,56.74
2023-05-20T02:30:40.209Z,57.55
2023-05-20T02:33:08.319Z,57.93
2023-05-20T02:35:36.792Z,57.92
2023-05-20T02:38:03.525Z,58.00
2023-05-20T02:40:30.450Z,58.54
2023-05-20T02:42:58.067Z,58.35
2023-05-20T02:45:24.875Z,58.39
2023-05-20T02:47:51.947Z,59.00
2023-05-20T02:50:19.153Z,59.49
2023-05-20T02:52:46.350Z,59.25
2023-05-20T02:55:13.547Z,59.63
2023-05-20T02:57:40.406Z,59.81
2023-05-20T03:00:13.450Z,60.26
2023-05-20T03:02:40.704Z,60.30
2023-05-20T03:05:08.618Z,60.17
2023-05-20T03:07:36.660Z,60.08
2023-05-20T03:10:06.792Z,60.31
2023-05-20T03:12:33.552Z,60.73
2023-05-20T03:15:01.075Z,60.64
2023-05-20T03:17:31.699Z,60.45
2023-05-20T03:19:58.654Z,60.60
2023-05-20T03:22:25.580Z,60.65
2023-05-20T03:24:52.869Z,61.22
2023-05-20T03:27:21.387Z,61.13
2023-05-20T03:29:48.268Z,60.77
2023-05-20T03:32:15.252Z,61.20
2023-05-20T03:34:42.348Z,60.69
2023-05-20T03:37:09.029Z,61.20
2023-05-20T03:39:35.793Z,61.55
2023-05-20T03:42:02.949Z,61.32
2023-05-20T03:44:30.006Z,61.66
2023-05-20T03:46:57.066Z,61.73
2023-05-20T03:49:24.033Z,62.11
2023-05-20T03:51:51.880Z,61.93
2023-05-20T03:54:19.042Z,62.11
2023-05-20T03:56:50.046Z,62.20
2023-05-20T03:59:17.881Z,62.03
2023-05-20T04:01:45.485Z,62.12
2023-05-20T04:04:12.543Z,62.29
2023-05-20T04:06:40.678Z,62.22
2023-05-20T04:09:07.612Z,62.00
2023-05-20T04:11:34.412Z,62.01
2023-05-20T04:14:01.299Z,62.00
2023-05-20T04:16:29.776Z,61.50
2023-05-20T04:18:59.141Z,62.04
2023-05-20T04:21:26.008Z,62.21
2023-05-20T04:23:52.897Z,62.85
2023-05-20T04:26:20.642Z,62.43
2023-05-20T04:28:49.601Z,62.70
2023-05-20T04:31:16.633Z,62.65
2023-05-20T04:33:44.530Z,62.58
2023-05-20T04:36:15.288Z,62.93
2023-05-20T04:38:42.379Z,62.88
2023-05-20T04:41:09.584Z,63.06
2023-05-20T04:43:38.912Z,63.18
2023-05-20T04:46:06.261Z,63.50
2023-05-20T04:48:33.941Z,63.51
2023-05-20T04:51:00.804Z,63.55
2023-05-20T04:53:27.511Z,63.51
2023-05-20T04:55:56.628Z,63.19
2023-05-20T04:58:25.313Z,63.70
2023-05-20T05:00:53.244Z,63.57
2023-05-20T05:03:20.366Z,63.43
2023-05-20T05:05:48.564Z,63.90
2023-05-20T05:08:16.789Z,64.52
2023-05-20T05:10:49.262Z,63.90
2023-05-20T05:13:16.368Z,63.95
2023-05-20T05:15:43.803Z,63.72
2023-05-20T05:18:12.227Z,63.63
2023-05-20T05:20:39.335Z,63.60
2023-05-20T05:23:06.185Z,63.89
2023-05-20T05:25:33.264Z,63.75
2023-05-20T05:28:00.192Z,63.65
2023-05-20T05:30:27.435Z,63.74
2023-05-20T05:32:54.597Z,63.66
2023-05-20T05:35:22.514Z,64.36
2023-05-20T05:37:49.423Z,64.74
2023-05-20T05:40:16.370Z,63.87
2023-05-20T05:42:43.132Z,64.15
2023-05-20T05:45:10.979Z,64.46
2023-05-20T05:47:37.873Z,63.86
2023-05-20T05:50:05.012Z,63.58
2023-05-20T05:52:33.693Z,63.17
2023-05-20T05:55:02.698Z,62.75
2023-05-20T05:57:32.168Z,62.91
2023-05-20T05:59:59.391Z,62.96
2023-05-20T06:02:36.185Z,62.82
2023-05-20T06:05:03.924Z,62.67
2023-05-20T06:07:32.321Z,61.53
2023-05-20T06:09:59.461Z,61.72
2023-05-20T06:12:26.526Z,62.21
2023-05-20T06:14:53.505Z,62.38
2023-05-20T06:17:20.786Z,62.20
2023-05-20T06:19:47.721Z,62.51
2023-05-20T06:22:14.620Z,62.18
2023-05-20T06:24:41.425Z,62.76
2023-05-20T06:27:08.433Z,62.34
2023-05-20T06:29:35.508Z,62.56
2023-05-20T06:32:02.388Z,62.60
2023-05-20T06:34:29.533Z,62.89
2023-05-20T06:36:57.737Z,62.58
2023-05-20T06:39:25.400Z,62.52
2023-05-20T06:41:52.283Z,62.63
2023-05-20T06:44:27.921Z,62.41
2023-05-20T06:47:02.190Z,62.43
2023-05-20T06:49:31.657Z,62.49
2023-05-20T06:51:58.669Z,61.66
2023-05-20T06:54:25.547Z,61.74
2023-05-20T06:56:52.205Z,60.96
2023-05-20T06:59:20.885Z,60.51
2023-05-20T07:01:47.630Z,60.83
2023-05-20T07:04:14.922Z,60.80
2023-05-20T07:06:41.727Z,60.22
2023-05-20T07:09:09.264Z,59.57
2023-05-20T07:11:36.218Z,60.03
2023-05-20T07:14:02.995Z,60.17
2023-05-20T07:16:32.554Z,60.03
2023-05-20T07:18:59.409Z,60.39
2023-05-20T07:21:27.041Z,60.17
2023-05-20T07:24:03.530Z,60.77
2023-05-20T07:26:33.685Z,60.89
2023-05-20T07:29:00.671Z,59.49
2023-05-20T07:31:27.475Z,58.96
2023-05-20T07:33:54.234Z,57.61
2023-05-20T07:36:21.210Z,56.15
2023-05-20T07:39:01.476Z,55.27
2023-05-20T07:41:32.154Z,54.56
2023-05-20T07:43:59.364Z,54.44
2023-05-20T07:46:26.476Z,54.05
2023-05-20T07:48:53.484Z,55.47
2023-05-20T07:51:20.560Z,56.42
2023-05-20T07:53:47.454Z,55.95
2023-05-20T07:56:14.445Z,55.87
2023-05-20T07:58:42.660Z,55.38
2023-05-20T08:01:11.659Z,55.16
2023-05-20T08:03:38.521Z,54.67
2023-05-20T08:06:10.630Z,54.18
2023-05-20T08:08:37.723Z,53.75
2023-05-20T08:11:10.416Z,53.54
2023-05-20T08:13:38.959Z,53.28
2023-05-20T08:16:06.499Z,53.34
2023-05-20T08:18:36.519Z,53.18
2023-05-20T08:21:05.108Z,52.97
2023-05-20T08:23:34.452Z,53.19
2023-05-20T08:26:03.679Z,53.01
2023-05-20T08:28:32.646Z,53.06
2023-05-20T08:31:01.724Z,52.97
2023-05-20T08:33:30.521Z,52.62
2023-05-20T08:35:57.318Z,52.83
2023-05-20T08:38:24.217Z,52.82
2023-05-20T08:40:56.524Z,52.36
2023-05-20T08:43:25.137Z,51.91
2023-05-20T08:45:52.769Z,52.14
2023-05-20T08:48:23.452Z,51.33
2023-05-20T08:50:51.937Z,52.00
2023-05-20T08:53:22.024Z,51.87
2023-05-20T08:55:55.491Z,52.30
2023-05-20T08:58:23.273Z,51.74
2023-05-20T09:00:51.408Z,51.81
2023-05-20T09:03:20.308Z,51.41
2023-05-20T09:05:48.327Z,50.97
2023-05-20T09:08:15.216Z,51.64
2023-05-20T09:10:42.407Z,51.26
2023-05-20T09:13:11.617Z,51.58
2023-05-20T09:15:39.064Z,51.42
2023-05-20T09:18:07.989Z,51.52
2023-05-20T09:20:37.265Z,50.99
2023-05-20T09:23:12.823Z,50.56
2023-05-20T09:25:39.552Z,49.95
2023-05-20T09:28:09.882Z,50.11
2023-05-20T09:30:36.612Z,49.90
2023-05-20T09:33:05.803Z,49.86
2023-05-20T09:35:37.697Z,50.32
2023-05-20T09:38:07.561Z,51.10
2023-05-20T09:40:34.299Z,49.86
2023-05-20T09:43:07.285Z,49.96
2023-05-20T09:45:34.678Z,49.89
2023-05-20T09:48:03.045Z,49.76
2023-05-20T09:50:31.584Z,50.14
2023-05-20T09:53:02.502Z,50.56
2023-05-20T09:55:30.193Z,51.01
2023-05-20T09:57:58.653Z,51.31
2023-05-20T10:00:25.430Z,51.31
2023-05-20T10:02:53.137Z,50.98
2023-05-20T10:05:24.085Z,52.32
2023-05-20T10:08:22.439Z,51.73
2023-05-20T10:11:01.383Z,51.39
2023-05-20T10:13:44.377Z,50.36
2023-05-20T10:16:33.049Z,50.74
2023-05-20T10:19:32.178Z,50.28
2023-05-20T10:22:06.200Z,49.70
2023-05-20T10:24:41.511Z,49.51
2023-05-20T10:27:14.224Z,49.73
2023-05-20T10:29:51.425Z,50.70
2023-05-20T10:32:32.394Z,50.45
2023-05-20T10:35:05.148Z,49.98
2023-05-20T10:37:44.977Z,49.50
2023-05-20T10:40:13.887Z,49.97
2023-05-20T10:42:41.690Z,49.78
2023-05-20T10:45:09.623Z,49.67
2023-05-20T10:47:37.522Z,48.62
2023-05-20T10:50:05.956Z,48.28
2023-05-20T10:52:34.739Z,49.03
2023-05-20T10:55:01.669Z,49.10
2023-05-20T10:57:31.058Z,49.01
2023-05-20T10:59:58.376Z,48.67
2023-05-20T11:02:27.275Z,48.13
2023-05-20T11:04:58.444Z,48.09
2023-05-20T11:07:29.933Z,47.93
2023-05-20T11:09:57.539Z,48.71
2023-05-20T11:12:26.159Z,49.03
2023-05-20T11:14:53.033Z,49.63
2023-05-20T11:17:20.326Z,49.53
2023-05-20T11:19:48.475Z,48.28
2023-05-20T11:22:15.497Z,49.64
2023-05-20T11:24:42.848Z,49.34
2023-05-20T11:27:09.772Z,49.98
2023-05-20T11:29:37.217Z,50.08
2023-05-20T11:32:04.409Z,50.47
2023-05-20T11:34:36.291Z,49.88
2023-05-20T11:37:07.628Z,50.14
2023-05-20T11:39:34.582Z,50.02
2023-05-20T11:42:01.358Z,49.44
2023-05-20T11:44:28.366Z,49.10
2023-05-20T11:47:01.398Z,48.63
2023-05-20T11:49:28.557Z,47.94
2023-05-20T11:51:56.941Z,48.08
2023-05-20T11:54:24.779Z,48.37
2023-05-20T11:56:51.725Z,48.37
2023-05-20T11:59:18.519Z,47.14
2023-05-20T12:01:45.602Z,47.46
2023-05-20T12:04:16.335Z,47.09
2023-05-20T12:06:44.000Z,47.47
2023-05-20T12:09:11.573Z,48.37
2023-05-20T12:11:41.194Z,47.89
2023-05-20T12:14:08.606Z,47.88
2023-05-20T12:16:36.552Z,46.97
2023-05-20T12:19:04.212Z,47.06
2023-05-20T12:21:32.179Z,47.11
2023-05-20T12:23:59.562Z,46.75
2023-05-20T12:26:29.668Z,47.58
2023-05-20T12:28:57.035Z,46.93
2023-05-20T12:31:25.155Z,47.05
2023-05-20T12:33:52.083Z,46.49
2023-05-20T12:36:19.694Z,46.43
2023-05-20T12:38:46.843Z,46.41
2023-05-20T12:41:13.865Z,46.80
2023-05-20T12:43:40.607Z,47.08
2023-05-20T12:46:07.487Z,47.53
2023-05-20T12:48:34.332Z,47.72
2023-05-20T12:51:01.369Z,47.74
2023-05-20T12:53:28.243Z,47.92
2023-05-20T12:55:55.264Z,48.21
2023-05-20T12:58:22.090Z,48.37
2023-05-20T13:00:48.795Z,47.87
2023-05-20T13:03:15.752Z,48.29
2023-05-20T13:05:42.496Z,48.40
2023-05-20T13:08:10.135Z,48.46
2023-05-20T13:10:37.465Z,47.38
2023-05-20T13:13:04.707Z,46.66
2023-05-20T13:15:33.200Z,46.02
2023-05-20T13:18:01.509Z,45.54
2023-05-20T13:20:29.805Z,45.42
2023-05-20T13:22:56.512Z,45.27
2023-05-20T13:25:23.400Z,44.98
2023-05-20T13:27:50.132Z,45.34
2023-05-20T13:30:17.010Z,45.38
2023-05-20T13:32:43.722Z,45.62
2023-05-20T13:35:10.617Z,45.57
2023-05-20T13:37:37.378Z,45.69
2023-05-20T13:40:04.416Z,45.50
2023-05-20T13:42:32.016Z,45.53
2023-05-20T13:44:58.724Z,45.60
2023-05-20T13:47:25.693Z,45.89
2023-05-20T13:49:52.558Z,45.83
2023-05-20T13:52:19.222Z,45.27
2023-05-20T13:54:47.499Z,45.27
2023-05-20T13:57:17.778Z,45.34
2023-05-20T13:59:44.524Z,44.32
2023-05-20T14:02:11.595Z,44.17
2023-05-20T14:04:39.966Z,43.88
2023-05-20T14:07:09.564Z,43.87
2023-05-20T14:09:37.063Z,43.70
2023-05-20T14:12:04.769Z,44.27
2023-05-20T14:14:31.621Z,44.56
2023-05-20T14:16:59.404Z,44.87
2023-05-20T14:19:27.105Z,45.29
2023-05-20T14:21:54.075Z,45.33
2023-05-20T14:24:22.160Z,45.18
2023-05-20T14:26:50.444Z,44.03
2023-05-20T14:29:17.148Z,43.59
2023-05-20T14:31:43.999Z,43.03
2023-05-20T14:34:10.904Z,42.07
2023-05-20T14:36:37.848Z,41.89
2023-05-20T14:39:04.986Z,41.92
2023-05-20T14:41:31.865Z,41.30
2023-05-20T14:43:58.734Z,41.42
2023-05-20T14:46:26.614Z,41.07
2023-05-20T14:48:53.419Z,39.61
2023-05-20T14:51:20.106Z,38.58
2023-05-20T14:53:46.836Z,37.39
2023-05-20T14:56:13.645Z,37.27
2023-05-20T14:58:40.684Z,37.75
2023-05-20T15:01:07.556Z,37.46
2023-05-20T15:03:34.456Z,36.72
2023-05-20T15:06:01.393Z,36.87
2023-05-20T15:08:28.207Z,37.46
2023-05-20T15:10:55.115Z,38.42
2023-05-20T15:13:21.889Z,39.19
2023-05-20T15:15:48.626Z,39.82
2023-05-20T15:18:15.368Z,40.37
2023-05-20T15:20:42.569Z,40.89
2023-05-20T15:23:09.497Z,40.69
2023-05-20T15:25:36.432Z,41.37
2023-05-20T15:28:03.493Z,41.46
2023-05-20T15:30:30.367Z,42.08
2023-05-20T15:32:57.788Z,42.46
2023-05-20T15:35:24.579Z,42.84
2023-05-20T15:37:51.566Z,43.15
2023-05-20T15:40:18.424Z,43.78
2023-05-20T15:42:45.534Z,44.11
2023-05-20T15:45:12.578Z,44.11
2023-05-20T15:47:40.741Z,44.90
2023-05-20T15:50:08.575Z,44.92
2023-05-20T15:52:35.789Z,45.50
2023-05-20T15:55:02.898Z,45.12
2023-05-20T15:57:30.729Z,45.43
2023-05-20T15:59:57.761Z,45.97
2023-05-20T16:02:25.057Z,46.39
2023-05-20T16:04:52.584Z,46.71
2023-05-20T16:07:20.899Z,47.47
2023-05-20T16:09:47.610Z,47.42
2023-05-20T16:12:16.473Z,47.65
2023-05-20T16:14:44.604Z,47.76
2023-05-20T16:17:12.305Z,48.13
2023-05-20T16:19:39.081Z,48.27
2023-05-20T16:22:05.876Z,48.56
2023-05-20T16:24:32.537Z,48.77
2023-05-20T16:26:59.345Z,48.60
2023-05-20T16:29:26.078Z,48.74
2023-05-20T16:31:53.059Z,48.86
2023-05-20T16:34:19.852Z,48.82
2023-05-20T16:36:46.726Z,48.53
2023-05-20T16:39:14.397Z,48.50
2023-05-20T16:41:41.596Z,48.46
2023-05-20T16:44:08.739Z,48.31
2023-05-20T16:46:35.572Z,48.66
2023-05-20T16:49:02.298Z,48.63
2023-05-20T16:51:28.987Z,48.75
2023-05-20T16:53:55.659Z,48.38
2023-05-20T16:56:22.973Z,48.81
2023-05-20T16:58:52.099Z,49.05
2023-05-20T17:01:19.878Z,49.35
2023-05-20T17:03:46.714Z,48.80
2023-05-20T17:06:13.454Z,48.82
2023-05-20T17:08:40.204Z,48.99
2023-05-20T17:11:06.952Z,49.38
2023-05-20T17:13:33.687Z,49.04
2023-05-20T17:16:00.758Z,48.95
2023-05-20T17:18:27.447Z,49.30
2023-05-20T17:20:54.203Z,49.40
2023-05-20T17:23:21.005Z,49.52
2023-05-20T17:25:47.813Z,49.77
2023-05-20T17:28:14.525Z,50.02
2023-05-20T17:30:41.268Z,50.21
2023-05-20T17:33:08.055Z,50.67
2023-05-20T17:35:35.550Z,50.50
2023-05-20T17:38:02.327Z,50.73
2023-05-20T17:40:29.273Z,50.81
2023-05-20T17:42:56.059Z,51.27
2023-05-20T17:45:22.856Z,51.42
2023-05-20T17:47:49.570Z,51.71
2023-05-20T17:50:16.718Z,52.04
2023-05-20T17:52:43.473Z,52.27
2023-05-20T17:55:10.395Z,52.34
2023-05-20T17:57:37.147Z,52.33
2023-05-20T18:00:05.580Z,52.87
2023-05-20T18:02:35.171Z,53.16
2023-05-20T18:05:01.993Z,53.03
2023-05-20T18:07:33.252Z,53.18
2023-05-20T18:09:59.930Z,53.72
2023-05-20T18:12:26.652Z,53.52
2023-05-20T18:14:53.343Z,53.77
2023-05-20T18:17:20.080Z,54.22
2023-05-20T18:19:46.833Z,54.13
2023-05-20T18:22:13.619Z,54.28
2023-05-20T18:24:40.400Z,54.29
2023-05-20T18:27:07.105Z,54.46
2023-05-20T18:29:33.813Z,54.70
2023-05-20T18:32:01.203Z,55.17
2023-05-20T18:34:28.228Z,54.93
2023-05-20T18:36:54.932Z,55.46
2023-05-20T18:39:21.597Z,55.54
2023-05-20T18:41:48.378Z,55.69
2023-05-20T18:44:19.066Z,55.69
2023-05-20T18:46:46.117Z,55.93
2023-05-20T18:49:12.875Z,56.33
2023-05-20T18:51:40.729Z,56.42
2023-05-20T18:54:08.263Z,56.45
2023-05-20T18:56:35.935Z,56.63
2023-05-20T18:59:02.766Z,57.08
2023-05-20T19:01:29.687Z,57.05
2023-05-20T19:03:56.520Z,57.31
2023-05-20T19:06:23.449Z,57.85
2023-05-20T19:08:50.280Z,58.41
2023-05-20T19:11:17.287Z,58.64
2023-05-20T19:13:44.036Z,58.54
2023-05-20T19:16:11.134Z,58.98
2023-05-20T19:18:37.872Z,59.08
2023-05-20T19:21:04.651Z,59.15
2023-05-20T19:23:32.502Z,58.89
2023-05-20T19:25:59.367Z,59.22
2023-05-20T19:28:26.229Z,59.02
2023-05-20T19:30:53.347Z,59.56
2023-05-20T19:33:21.318Z,59.31
2023-05-20T19:35:48.249Z,59.21
2023-05-20T19:38:15.573Z,59.46
2023-05-20T19:40:43.994Z,59.60
2023-05-20T19:43:11.192Z,59.71
2023-05-20T19:45:38.131Z,59.98
2023-05-20T19:48:06.373Z,60.11
2023-05-20T19:50:33.943Z,60.33
2023-05-20T19:53:03.164Z,60.51
2023-05-20T19:55:29.963Z,60.39
2023-05-20T19:57:57.181Z,60.47
2023-05-20T20:00:24.144Z,60.83
2023-05-20T20:02:51.328Z,60.78
2023-05-20T20:05:18.422Z,60.79
2023-05-20T20:07:45.903Z,61.24
2023-05-20T20:10:12.581Z,61.52
2023-05-20T20:12:39.346Z,61.65
2023-05-20T20:15:06.786Z,61.63
2023-05-20T20:17:33.736Z,61.94
2023-05-20T20:20:01.199Z,61.96
2023-05-20T20:22:28.481Z,61.89
2023-05-20T20:24:55.232Z,62.19
2023-05-20T20:27:23.683Z,62.30
2023-05-20T20:29:51.218Z,62.63
2023-05-20T20:32:18.044Z,62.55
2023-05-20T20:34:45.987Z,62.30
2023-05-20T20:37:14.973Z,62.72
2023-05-20T20:39:45.244Z,63.29
2023-05-20T20:42:12.109Z,63.24
2023-05-20T20:44:42.590Z,63.51
2023-05-20T20:47:09.977Z,63.66
2023-05-20T20:49:36.788Z,63.54
2023-05-20T20:52:03.682Z,63.73
2023-05-20T20:54:32.712Z,63.63
2023-05-20T20:56:59.983Z,63.88
2023-05-20T20:59:26.933Z,63.62
2023-05-20T21:01:54.526Z,63.60
2023-05-20T21:04:21.402Z,63.64
2023-05-20T21:06:48.222Z,63.95
2023-05-20T21:09:15.185Z,64.08
2023-05-20T21:11:42.362Z,64.17
2023-05-20T21:14:10.049Z,64.47
2023-05-20T21:16:37.447Z,64.65
2023-05-20T21:19:04.655Z,64.46
2023-05-20T21:21:31.602Z,64.88
2023-05-20T21:23:58.364Z,65.06
2023-05-20T21:26:25.634Z,65.32
2023-05-20T21:28:52.677Z,65.39
2023-05-20T21:31:19.586Z,65.04
2023-05-20T21:33:46.607Z,65.45
2023-05-20T21:36:13.402Z,65.79
2023-05-20T21:38:40.502Z,66.32
2023-05-20T21:41:08.529Z,65.61
2023-05-20T21:43:36.059Z,65.96
2023-05-20T21:46:03.256Z,66.44
2023-05-20T21:48:30.135Z,66.30
2023-05-20T21:50:56.829Z,66.54
2023-05-20T21:53:23.676Z,66.75
2023-05-20T21:55:51.390Z,67.58
2023-05-20T21:58:18.065Z,67.22
2023-05-20T22:00:45.083Z,67.31
2023-05-20T22:03:13.071Z,67.76
2023-05-20T22:05:41.215Z,67.70
2023-05-20T22:08:08.426Z,67.51
2023-05-20T22:10:36.415Z,67.31
2023-05-20T22:13:03.402Z,67.91
2023-05-20T22:15:31.441Z,67.76
2023-05-20T22:17:58.551Z,67.75
2023-05-20T22:20:25.561Z,68.12
2023-05-20T22:22:52.443Z,68.29
2023-05-20T22:25:19.169Z,68.06
2023-05-20T22:27:45.845Z,68.43
2023-05-20T22:30:13.084Z,68.36
2023-05-20T22:32:40.380Z,68.81
2023-05-20T22:35:07.850Z,68.41
2023-05-20T22:37:34.721Z,69.24
2023-05-20T22:40:01.554Z,68.79
2023-05-20T22:42:31.129Z,68.99
2023-05-20T22:44:58.266Z,69.30
2023-05-20T22:47:25.024Z,69.11
2023-05-20T22:49:51.711Z,69.60
2023-05-20T22:52:18.558Z,70.32
2023-05-20T22:54:45.448Z,70.24
2023-05-20T22:57:12.254Z,70.35
2023-05-20T22:59:40.331Z,70.85
2023-05-20T23:02:07.800Z,70.59
2023-05-20T23:04:34.557Z,70.75
2023-05-20T23:07:01.261Z,71.08
2023-05-20T23:09:28.061Z,71.41
2023-05-20T23:11:54.771Z,70.90
2023-05-20T23:14:21.702Z,71.29
2023-05-20T23:16:48.483Z,71.22
2023-05-20T23:19:16.488Z,71.88
2023-05-20T23:21:43.959Z,71.62
2023-05-20T23:24:11.897Z,71.61
2023-05-20T23:26:39.562Z,71.88
2023-05-20T23:29:06.595Z,72.63
2023-05-20T23:31:33.696Z,72.17
2023-05-20T23:34:03.438Z,72.59
2023-05-20T23:36:34.430Z,72.29
2023-05-20T23:39:02.426Z,72.54
2023-05-20T23:41:29.406Z,72.47
2023-05-20T23:43:56.135Z,72.02
2023-05-20T23:46:22.927Z,72.15
2023-05-20T23:48:50.156Z,72.90
2023-05-20T23:51:16.904Z,72.97
2023-05-20T23:53:44.489Z,72.84
2023-05-20T23:56:11.504Z,72.83
2023-05-20T23:58:38.266Z,72.86
